Allenton, MO

2:16 PM CDT on October 25, 2014 (GMT -0500)
Old Town | Change Station
CLOSE
Current Station
Personal Weather Station
Location: Pacific, MO
Elevation: 495 ft
Nearby Weather Stations

Elev 495 ft 38.48 °N, 90.75 °W | Updated 56 seconds ago

Clear
Clear
81.5 °F
Feels Like 83 °F
N
0.0
Wind Variable Wind from SE
Gusts 0.0 mph

Today
High -- | Low -- °F
--% Chance of Precip.
Yesterday
High -- | Low -- °F
Precip. -- in
7:21 AM 6:11 PM
Waxing Crescent, 4% visible
Pressure 29.99 in
Visibility 10.0 miles
Clouds Few 10000 ft
Heat Index 83 °F
Dew Point 63 °F
Humidity 54%
Rainfall 0.00 in
Snow Depth Not available.
UV 4 out of 12
Pollen 2.90 out of 12
Ozone Good
PM2.5 Moderate
Flu Activity No Activity
METAR KSUS 251854Z 02004KT 10SM FEW100 27/13 A3001 RMK AO2 SLP155 T02670133

More Conditions Fewer Conditions

Pressure 29.99 in
Visibility 10.0 miles
Clouds Few 10000 ft
Heat Index 83 °F
Dew Point 63 °F
Humidity 54%
Rainfall 0.00 in
Snow Depth Not available.
UV 4 out of 12
Pollen 2.90 out of 12
Ozone Good
PM2.5 Moderate
Flu Activity No Activity
METAR KSUS 251854Z 02004KT 10SM FEW100 27/13 A3001 RMK AO2 SLP155 T02670133

More Conditions Fewer Conditions

10-Day Weather Forecast

Almanac

Astronomy

Oct. 25, 2014 Rise Set
Actual Time 7:21 AM CDT 6:11 PM CDT
Civil Twilight 6:54 AM CDT 6:38 PM CDT
Nautical Twilight 6:23 AM CDT 7:09 PM CDT
Astronomical Twilight 5:52 AM CDT 7:39 PM CDT
Moon 8:59 AM CDT 7:35 PM CDT
Length of Visible Light 11h 43m
Length of Day
10h 49m
Tomorrow will be 2m 17s shorter.
Waxing Crescent, 4% of the Moon is Illuminated
Today
Waxing Crescent
Oct 30
First Quarter
Nov 6
Full
Nov 14
Last Quarter
Nov 22
New

Today's Extremes

State Highs State Lows

Community

WunderPhotos

Upload Photos

1,764,965 photos uploaded!

Nearby

Air Quality

  Air Quality AQ Index Pollutant
Yesterday Good
PM2.5
Yesterday Good
OZONE
Current Moderate
PM2.5
Current Good
OZONE
Saturday Good
PM2.5

Snow Depth

Station Depth Elevation
No new snow has been reported.

Earthquake Activity

City Distance Mag. Time & Date
No recent earthquake activity has been reported nearby.
Minimum magnitude displayed is 2.5.

Coastal Water Temperatures

Place Temperature
No Stations Reporting

Nearby Weather Stations